Time;durP1;ratioP1;P1;durP2;ratioP2;P2;SDS_P1;SDS_P2;PMS_P1;PMS_P2;Temp;Humidity;BMP_temperature;BMP_pressure;BME280_temperature;BME280_humidity;BME280_pressure;Samples;Min_cycle;Max_cycle;Signal;HPM_P1;HPM_P2
2022/01/10 00:00:14;;;;;;;8.00;5.68;;;3.60;86.40;;;;;;5054333;28;20226;-57
2022/01/10 00:02:43;;;;;;;8.30;6.40;;;3.60;86.20;;;;;;5054208;28;20255;-57
2022/01/10 00:05:11;;;;;;;9.90;6.70;;;3.70;86.50;;;;;;5054135;28;20201;-57
2022/01/10 00:07:38;;;;;;;9.55;6.95;;;3.70;86.60;;;;;;5053845;28;20224;-59
2022/01/10 00:10:08;;;;;;;8.75;5.75;;;3.80;86.60;;;;;;5053968;28;20216;-56
2022/01/10 00:12:34;;;;;;;12.73;7.22;;;3.90;86.50;;;;;;5052433;28;20239;-54
2022/01/10 00:15:01;;;;;;;11.65;6.68;;;4.00;85.80;;;;;;5053834;28;20205;-58
2022/01/10 00:17:28;;;;;;;7.95;4.55;;;3.90;85.40;;;;;;5054439;28;20232;-58
2022/01/10 00:19:55;;;;;;;4.85;4.30;;;3.80;84.40;;;;;;5054340;28;20300;-59
2022/01/10 00:22:23;;;;;;;5.20;4.43;;;3.70;84.70;;;;;;5054209;28;20229;-57
2022/01/10 00:24:50;;;;;;;7.40;5.05;;;3.60;85.10;;;;;;5054436;28;20201;-60
2022/01/10 00:27:18;;;;;;;7.68;4.53;;;3.70;85.40;;;;;;5053175;28;20263;-58
2022/01/10 00:29:45;;;;;;;10.25;5.20;;;3.80;85.40;;;;;;5054416;28;20625;-59
2022/01/10 00:32:12;;;;;;;9.68;4.60;;;4.00;86.10;;;;;;5054311;28;20197;-58
2022/01/10 00:34:38;;;;;;;5.10;4.65;;;4.10;86.10;;;;;;5054187;28;20456;-60
2022/01/10 00:37:05;;;;;;;6.28;3.53;;;4.30;85.70;;;;;;5054236;28;20331;-58
2022/01/10 00:39:32;;;;;;;6.50;4.30;;;4.40;85.20;;;;;;5054177;28;20568;-60
2022/01/10 00:41:59;;;;;;;7.18;4.50;;;4.50;84.90;;;;;;5052688;28;20730;-58
2022/01/10 00:44:31;;;;;;;6.50;4.68;;;4.60;84.40;;;;;;5054088;28;20239;-59
2022/01/10 00:46:58;;;;;;;5.53;4.40;;;4.60;83.80;;;;;;5054096;28;20205;-58
2022/01/10 00:49:24;;;;;;;7.15;5.50;;;4.60;83.40;;;;;;5054090;28;20201;-58
2022/01/10 00:51:51;;;;;;;5.65;4.70;;;4.60;84.00;;;;;;5053998;28;20238;-58
2022/01/10 00:54:18;;;;;;;7.10;4.82;;;4.60;84.00;;;;;;5053849;28;20224;-57
2022/01/10 00:56:45;;;;;;;5.10;4.25;;;4.70;83.80;;;;;;5052546;28;20207;-59
2022/01/10 00:59:12;;;;;;;5.43;4.60;;;4.70;83.90;;;;;;5053850;28;20201;-57
2022/01/10 01:01:41;;;;;;;6.28;3.95;;;4.70;83.60;;;;;;5053608;28;20778;-59
2022/01/10 01:04:08;;;;;;;5.05;4.55;;;4.70;83.30;;;;;;5053797;28;20237;-59
2022/01/10 01:06:35;;;;;;;5.45;4.95;;;4.70;83.60;;;;;;5053813;28;20293;-59
2022/01/10 01:09:06;;;;;;;9.20;5.43;;;4.70;83.70;;;;;;5053510;28;20246;-60
2022/01/10 01:14:26;;;;;;;5.85;4.20;;;4.90;83.60;;;;;;5049667;28;20284;-60
2022/01/10 01:17:09;;;;;;;7.40;5.07;;;4.90;83.10;;;;;;5053410;28;20791;-59
2022/01/10 01:20:05;;;;;;;6.90;5.00;;;4.90;82.90;;;;;;5053380;28;20606;-57
2022/01/10 01:25:16;;;;;;;5.80;3.95;;;4.90;82.70;;;;;;5053394;28;20661;-59
2022/01/10 01:27:44;;;;;;;4.80;4.20;;;4.90;82.70;;;;;;5051945;28;20197;-59
2022/01/10 01:30:11;;;;;;;5.85;4.20;;;4.80;82.50;;;;;;5053181;28;20213;-59
2022/01/10 01:32:40;;;;;;;7.07;4.38;;;4.80;82.70;;;;;;5053253;28;20675;-61
2022/01/10 01:35:08;;;;;;;7.07;4.85;;;4.80;82.50;;;;;;5053078;28;20236;-59
2022/01/10 01:37:36;;;;;;;5.72;3.92;;;4.80;82.60;;;;;;5052917;28;20288;-59
2022/01/10 01:40:05;;;;;;;9.48;4.70;;;4.80;82.40;;;;;;5053107;28;20649;-59
2022/01/10 01:42:36;;;;;;;5.10;4.45;;;4.80;82.50;;;;;;5051793;28;20244;-59
2022/01/10 01:45:04;;;;;;;7.60;5.75;;;4.80;82.50;;;;;;5052527;28;20540;-59
2022/01/10 01:47:31;;;;;;;8.50;4.95;;;4.80;82.60;;;;;;5052836;28;20209;-56
2022/01/10 01:50:00;;;;;;;4.90;4.32;;;4.80;82.50;;;;;;5052943;28;20296;-60
2022/01/10 01:52:27;;;;;;;5.28;3.83;;;4.80;82.60;;;;;;5052857;28;20201;-61
2022/01/10 01:54:54;;;;;;;7.65;4.68;;;4.80;82.50;;;;;;5052912;28;20201;-59
2022/01/10 01:57:22;;;;;;;11.10;6.22;;;4.80;82.40;;;;;;5051633;28;20223;-61
2022/01/10 01:59:49;;;;;;;10.00;5.88;;;4.80;82.50;;;;;;5052783;28;20291;-58
2022/01/10 02:02:16;;;;;;;7.20;5.60;;;4.80;82.40;;;;;;5052630;28;20221;-59
2022/01/10 02:04:43;;;;;;;6.10;4.82;;;4.80;82.40;;;;;;5052778;28;20208;-61
2022/01/10 02:07:11;;;;;;;8.05;4.50;;;4.70;82.20;;;;;;5052840;28;20206;-58
2022/01/10 02:09:38;;;;;;;4.35;3.95;;;4.60;82.70;;;;;;5052595;28;20210;-59
2022/01/10 02:12:06;;;;;;;8.98;4.95;;;4.60;83.20;;;;;;5051305;28;20658;-60
2022/01/10 02:14:33;;;;;;;7.22;3.42;;;4.60;83.60;;;;;;5052520;28;20209;-57
2022/01/10 02:16:59;;;;;;;6.80;3.20;;;4.70;83.40;;;;;;5052588;28;20249;-60
2022/01/10 02:19:27;;;;;;;5.03;3.10;;;4.70;83.50;;;;;;5052689;28;20240;-59
2022/01/10 02:21:55;;;;;;;6.70;3.25;;;4.80;83.50;;;;;;5052550;28;20239;-60
2022/01/10 02:24:23;;;;;;;4.10;3.63;;;4.70;83.40;;;;;;5052480;28;20656;-60
2022/01/10 02:26:51;;;;;;;4.60;3.60;;;4.80;83.50;;;;;;5051280;28;20663;-61
2022/01/10 02:29:18;;;;;;;4.47;3.60;;;4.90;83.40;;;;;;5052501;28;20201;-59
2022/01/10 02:31:47;;;;;;;4.25;3.30;;;4.90;83.10;;;;;;5052732;28;20205;-60
2022/01/10 02:34:18;;;;;;;7.03;4.20;;;4.80;82.20;;;;;;5052540;28;20209;-57
2022/01/10 02:36:45;;;;;;;5.72;4.20;;;4.70;82.30;;;;;;5052472;28;20240;-61
2022/01/10 02:39:19;;;;;;;7.80;4.30;;;4.60;82.80;;;;;;5052323;28;20237;-58
2022/01/10 02:41:46;;;;;;;7.10;4.28;;;4.50;83.20;;;;;;5051143;28;20225;-59
2022/01/10 02:44:15;;;;;;;5.60;4.00;;;4.50;83.70;;;;;;5052265;28;20624;-61
2022/01/10 02:46:43;;;;;;;7.30;4.30;;;4.50;83.90;;;;;;5052556;28;20218;-59
2022/01/10 02:49:11;;;;;;;6.20;4.55;;;4.50;83.90;;;;;;5052467;28;20209;-59
2022/01/10 02:51:38;;;;;;;4.80;4.30;;;4.50;83.90;;;;;;5052409;28;20292;-58
2022/01/10 02:54:07;;;;;;;5.13;4.20;;;4.50;84.00;;;;;;5052253;28;20573;-59
2022/01/10 02:56:35;;;;;;;8.55;5.10;;;4.60;84.10;;;;;;5050843;28;20286;-59
2022/01/10 02:59:02;;;;;;;6.32;4.20;;;4.60;84.20;;;;;;5055511;28;20212;-60
2022/01/10 03:01:29;;;;;;;5.68;4.15;;;4.60;83.90;;;;;;5056086;28;20288;-59
2022/01/10 03:03:56;;;;;;;4.75;4.25;;;4.50;83.90;;;;;;5055971;28;20314;-60
2022/01/10 03:06:22;;;;;;;8.30;4.88;;;4.60;84.30;;;;;;5055912;28;20695;-62
2022/01/10 03:08:49;;;;;;;7.05;4.65;;;4.60;84.20;;;;;;5056039;28;20296;-58
2022/01/10 03:11:16;;;;;;;8.52;4.85;;;4.50;83.90;;;;;;5055613;28;20328;-56
2022/01/10 03:13:44;;;;;;;7.03;5.35;;;4.40;84.30;;;;;;5054385;28;20315;-56
2022/01/10 03:16:11;;;;;;;8.18;5.95;;;4.30;84.60;;;;;;5055789;28;20249;-56
2022/01/10 03:18:38;;;;;;;8.30;5.60;;;4.30;85.00;;;;;;5055711;28;20292;-56
2022/01/10 03:21:05;;;;;;;6.40;5.10;;;4.40;85.20;;;;;;5055632;28;20225;-56
2022/01/10 03:23:31;;;;;;;8.35;4.80;;;4.50;85.30;;;;;;5055200;28;20714;-56
2022/01/10 03:25:58;;;;;;;8.88;6.40;;;4.60;85.10;;;;;;5055574;28;20914;-56
2022/01/10 03:28:25;;;;;;;9.95;6.20;;;4.70;84.80;;;;;;5054290;28;20292;-56
2022/01/10 03:30:53;;;;;;;8.40;6.30;;;4.80;84.60;;;;;;5055409;28;20208;-56
2022/01/10 03:33:20;;;;;;;9.57;6.90;;;4.90;84.40;;;;;;5055416;28;20212;-56
2022/01/10 03:35:47;;;;;;;11.13;7.25;;;4.90;84.20;;;;;;5055320;28;20240;-56
2022/01/10 03:38:14;;;;;;;8.30;6.47;;;5.00;84.00;;;;;;5055100;28;20203;-56
2022/01/10 03:40:41;;;;;;;11.85;7.40;;;4.90;83.80;;;;;;5055458;28;20212;-56
2022/01/10 03:43:08;;;;;;;11.23;6.85;;;4.90;83.90;;;;;;5053946;28;20229;-57
2022/01/10 03:45:35;;;;;;;10.05;6.50;;;5.00;83.70;;;;;;5055229;28;20296;-59
2022/01/10 03:48:03;;;;;;;10.18;6.63;;;5.00;83.60;;;;;;5055207;28;20233;-59
2022/01/10 03:50:30;;;;;;;10.27;6.63;;;5.00;83.40;;;;;;5055133;28;20292;-56
2022/01/10 03:52:57;;;;;;;15.00;7.07;;;5.00;83.30;;;;;;5054969;28;20228;-56
2022/01/10 03:55:25;;;;;;;10.55;7.40;;;5.00;83.10;;;;;;5055121;28;20212;-58
2022/01/10 03:57:52;;;;;;;8.57;6.45;;;5.00;83.20;;;;;;5053777;28;20208;-59
2022/01/10 04:00:19;;;;;;;8.15;6.82;;;5.00;82.90;;;;;;5055097;28;20239;-58
2022/01/10 04:02:53;;;;;;;10.25;5.22;;;5.00;82.80;;;;;;5054914;28;20383;-60
2022/01/10 04:05:21;;;;;;;13.50;6.22;;;5.00;82.80;;;;;;5054648;28;20292;-59
2022/01/10 04:07:48;;;;;;;8.25;5.57;;;4.90;82.80;;;;;;5054797;28;20304;-56
2022/01/10 04:10:15;;;;;;;14.10;6.32;;;4.90;82.80;;;;;;5054625;28;20209;-57
2022/01/10 04:12:42;;;;;;;6.82;5.20;;;4.90;82.80;;;;;;5053266;28;20320;-58
2022/01/10 04:15:10;;;;;;;8.95;6.25;;;4.90;82.60;;;;;;5054527;28;20261;-59
2022/01/10 04:17:36;;;;;;;11.00;6.20;;;4.80;82.70;;;;;;5054506;28;20300;-59
2022/01/10 04:20:05;;;;;;;8.07;5.68;;;4.80;83.00;;;;;;5054512;28;20802;-59
2022/01/10 04:22:33;;;;;;;8.60;5.93;;;4.80;83.10;;;;;;5054463;28;20221;-59
2022/01/10 04:25:00;;;;;;;12.35;6.68;;;4.80;83.10;;;;;;5054406;28;20207;-56
2022/01/10 04:27:31;;;;;;;9.52;6.10;;;4.80;83.20;;;;;;5053195;28;20216;-60
2022/01/10 04:29:58;;;;;;;11.23;6.35;;;4.80;83.20;;;;;;5054325;28;20201;-60
2022/01/10 04:32:27;;;;;;;7.57;5.32;;;4.80;83.10;;;;;;5054271;28;20205;-55
2022/01/10 04:34:54;;;;;;;9.20;5.95;;;4.70;83.20;;;;;;5054337;28;20334;-59
2022/01/10 04:37:20;;;;;;;7.47;5.80;;;4.70;83.30;;;;;;5054280;28;20292;-59
2022/01/10 04:39:49;;;;;;;11.45;7.22;;;4.70;83.50;;;;;;5054055;28;20209;-59
2022/01/10 04:42:16;;;;;;;9.73;5.90;;;4.70;83.40;;;;;;5052736;28;20292;-57
2022/01/10 04:44:42;;;;;;;10.07;7.03;;;4.70;83.50;;;;;;5054089;28;20211;-60
2022/01/10 04:47:10;;;;;;;13.13;6.88;;;4.70;83.40;;;;;;5053971;28;20706;-58
2022/01/10 04:49:58;;;;;;;11.93;7.50;;;4.70;83.40;;;;;;5053963;28;20651;-56
2022/01/10 04:52:24;;;;;;;15.85;8.00;;;4.70;83.40;;;;;;5053810;28;20278;-58
2022/01/10 04:54:52;;;;;;;17.63;8.30;;;4.70;83.50;;;;;;5053793;28;20292;-56
2022/01/10 04:57:19;;;;;;;14.85;8.68;;;4.70;83.50;;;;;;5052416;28;20585;-60
2022/01/10 04:59:46;;;;;;;16.67;9.30;;;4.70;83.70;;;;;;5053972;28;20197;-56
2022/01/10 05:02:13;;;;;;;14.70;7.78;;;4.70;83.70;;;;;;5053784;28;20621;-58
2022/01/10 05:04:40;;;;;;;12.60;7.03;;;4.60;83.60;;;;;;5053994;28;20287;-60
2022/01/10 05:07:07;;;;;;;13.50;8.15;;;4.60;84.10;;;;;;5053688;28;20227;-61
2022/01/10 05:09:34;;;;;;;15.30;7.65;;;4.50;84.40;;;;;;5053517;28;20300;-57
2022/01/10 05:12:03;;;;;;;12.48;7.85;;;4.60;84.30;;;;;;5052185;28;20340;-61
2022/01/10 05:14:31;;;;;;;15.68;8.63;;;4.60;84.30;;;;;;5053459;28;20328;-58
2022/01/10 05:16:58;;;;;;;14.05;7.47;;;4.60;84.10;;;;;;5053503;28;20296;-59
2022/01/10 05:19:25;;;;;;;15.45;9.18;;;4.60;84.30;;;;;;5053459;28;20208;-60
2022/01/10 05:21:52;;;;;;;16.80;9.35;;;4.60;84.30;;;;;;5052807;28;20205;-60
2022/01/10 05:24:19;;;;;;;15.60;8.75;;;4.70;84.20;;;;;;5053197;28;20240;-57
2022/01/10 05:26:46;;;;;;;13.40;7.97;;;4.70;84.10;;;;;;5051950;28;20212;-60
2022/01/10 05:29:15;;;;;;;15.07;8.05;;;4.70;84.10;;;;;;5053354;28;20211;-59
2022/01/10 05:31:42;;;;;;;15.38;8.98;;;4.70;84.10;;;;;;5053270;28;20765;-59
2022/01/10 05:34:09;;;;;;;10.93;7.85;;;4.70;84.10;;;;;;5053245;28;20296;-61
2022/01/10 05:36:36;;;;;;;15.30;8.70;;;4.80;84.10;;;;;;5053233;28;20233;-59
2022/01/10 05:39:04;;;;;;;13.95;8.18;;;4.70;84.10;;;;;;5052916;28;20219;-60
2022/01/10 05:41:30;;;;;;;13.48;8.20;;;4.80;84.20;;;;;;5052367;28;20201;-56
2022/01/10 05:43:57;;;;;;;14.18;8.60;;;4.80;84.20;;;;;;5052511;28;20332;-61
2022/01/10 05:46:25;;;;;;;16.60;8.55;;;4.70;84.10;;;;;;5053020;28;20232;-60
2022/01/10 05:48:54;;;;;;;15.15;8.48;;;4.60;84.70;;;;;;5052959;28;20284;-60
2022/01/10 05:51:21;;;;;;;15.93;9.70;;;4.60;84.70;;;;;;5052904;28;20210;-61
2022/01/10 05:53:48;;;;;;;15.82;9.52;;;4.50;85.10;;;;;;5052610;28;20198;-59
2022/01/10 05:56:15;;;;;;;14.35;8.60;;;4.40;85.40;;;;;;5052665;28;20714;-59
2022/01/10 05:58:42;;;;;;;19.33;10.40;;;4.40;85.60;;;;;;5051646;28;20205;-60
2022/01/10 06:01:09;;;;;;;17.98;10.32;;;4.40;85.50;;;;;;5052881;28;20233;-59
2022/01/10 06:03:37;;;;;;;12.98;10.05;;;4.50;85.80;;;;;;5052715;28;20308;-61
2022/01/10 06:06:04;;;;;;;13.38;9.23;;;4.60;85.50;;;;;;5052803;28;20538;-60
2022/01/10 06:08:31;;;;;;;14.98;9.73;;;4.70;85.40;;;;;;5052417;28;20215;-61
2022/01/10 06:10:58;;;;;;;16.80;8.80;;;4.80;85.00;;;;;;5052460;28;20226;-59
2022/01/10 06:13:25;;;;;;;15.18;8.75;;;4.90;84.70;;;;;;5051309;28;20301;-60
2022/01/10 06:15:52;;;;;;;15.45;9.38;;;4.80;84.40;;;;;;5052610;28;20950;-60
2022/01/10 06:18:20;;;;;;;14.20;9.48;;;4.80;84.40;;;;;;5052720;28;20209;-59
2022/01/10 06:20:48;;;;;;;13.23;8.25;;;4.80;84.40;;;;;;5052530;28;20300;-60
2022/01/10 06:23:16;;;;;;;14.68;9.88;;;4.70;84.20;;;;;;5052374;28;20264;-60
2022/01/10 06:25:42;;;;;;;18.65;9.23;;;4.70;84.40;;;;;;5052531;28;20208;-61
2022/01/10 06:28:09;;;;;;;17.65;10.10;;;4.70;84.50;;;;;;5051250;28;20244;-59
2022/01/10 06:30:36;;;;;;;13.70;8.18;;;4.70;84.50;;;;;;5052543;28;20652;-61
2022/01/10 06:33:03;;;;;;;16.40;9.75;;;4.70;84.60;;;;;;5055780;28;20702;-59
2022/01/10 06:35:30;;;;;;;16.75;9.52;;;4.70;84.50;;;;;;5056396;28;20201;-60
2022/01/10 06:37:58;;;;;;;24.17;11.05;;;4.60;84.80;;;;;;5056573;28;20223;-60
2022/01/10 06:40:25;;;;;;;18.50;10.98;;;4.60;85.00;;;;;;5056356;28;20211;-60
2022/01/10 06:42:52;;;;;;;15.20;9.73;;;4.60;84.90;;;;;;5055040;28;20300;-58
2022/01/10 06:45:19;;;;;;;20.73;10.50;;;4.60;84.90;;;;;;5056291;28;20210;-61
2022/01/10 06:47:46;;;;;;;17.67;10.23;;;4.60;84.70;;;;;;5056222;28;20536;-61
2022/01/10 06:50:13;;;;;;;17.45;9.80;;;4.70;84.40;;;;;;5056327;28;20202;-61
2022/01/10 06:52:40;;;;;;;25.92;11.50;;;4.70;84.40;;;;;;5056275;28;20236;-60
2022/01/10 06:55:09;;;;;;;22.92;11.68;;;4.70;84.40;;;;;;5056006;28;20569;-57
2022/01/10 06:57:36;;;;;;;22.88;11.10;;;4.70;84.30;;;;;;5054864;28;20201;-57
2022/01/10 07:00:06;;;;;;;20.90;11.07;;;4.70;84.20;;;;;;5055951;28;20244;-59
2022/01/10 07:02:34;;;;;;;25.70;11.45;;;4.70;84.10;;;;;;5055836;28;20237;-59
2022/01/10 07:05:01;;;;;;;24.85;11.55;;;4.60;84.30;;;;;;5055868;28;20299;-59
2022/01/10 07:07:28;;;;;;;30.27;12.27;;;4.50;84.70;;;;;;5055919;28;20224;-58
2022/01/10 07:09:55;;;;;;;20.55;11.88;;;4.40;84.80;;;;;;5055700;28;20263;-60
2022/01/10 07:12:23;;;;;;;23.55;11.77;;;4.40;85.00;;;;;;5054424;28;20571;-60
2022/01/10 07:14:50;;;;;;;21.13;11.27;;;4.30;85.00;;;;;;5055675;28;20320;-60
2022/01/10 07:17:17;;;;;;;23.92;12.25;;;4.30;85.20;;;;;;5055714;28;20240;-60
2022/01/10 07:19:44;;;;;;;23.67;12.00;;;4.20;85.50;;;;;;5055665;28;20288;-60
2022/01/10 07:22:11;;;;;;;24.50;12.65;;;4.20;86.20;;;;;;5055662;28;20300;-60
2022/01/10 07:24:39;;;;;;;22.48;12.00;;;4.30;86.00;;;;;;5055393;28;20229;-60
2022/01/10 07:27:06;;;;;;;23.20;11.95;;;4.30;85.90;;;;;;5054251;28;20630;-59
2022/01/10 07:29:34;;;;;;;22.80;11.68;;;4.40;85.60;;;;;;5055459;28;20208;-60
2022/01/10 07:32:01;;;;;;;22.42;11.98;;;4.50;85.40;;;;;;5055281;28;20211;-59
2022/01/10 07:34:28;;;;;;;21.17;11.70;;;4.50;85.20;;;;;;5055363;28;20284;-60
2022/01/10 07:36:55;;;;;;;24.60;12.80;;;4.60;85.10;;;;;;5055478;28;20229;-58
2022/01/10 07:39:22;;;;;;;26.90;12.88;;;4.60;85.00;;;;;;5055323;28;20560;-60
2022/01/10 07:41:48;;;;;;;23.85;11.45;;;4.60;84.80;;;;;;5053964;28;20324;-60
2022/01/10 07:44:15;;;;;;;23.17;11.57;;;4.60;85.10;;;;;;5054181;28;20324;-60
2022/01/10 07:46:43;;;;;;;20.08;10.93;;;4.60;85.30;;;;;;5055125;28;20212;-60
2022/01/10 07:49:10;;;;;;;20.85;11.05;;;4.40;85.10;;;;;;5055136;28;20300;-58
2022/01/10 07:51:37;;;;;;;22.88;11.70;;;4.40;85.70;;;;;;5055016;28;20208;-59
2022/01/10 07:54:04;;;;;;;24.48;11.18;;;4.40;85.90;;;;;;5054877;28;20297;-60
2022/01/10 07:56:31;;;;;;;28.23;12.32;;;4.40;85.80;;;;;;5054388;28;20288;-56
2022/01/10 07:58:58;;;;;;;30.67;13.93;;;4.40;85.80;;;;;;5054281;28;20202;-60
2022/01/10 08:01:25;;;;;;;26.10;13.23;;;4.50;85.60;;;;;;5054887;28;20201;-60
2022/01/10 08:03:53;;;;;;;19.15;11.10;;;4.50;85.20;;;;;;5054731;28;20316;-61
2022/01/10 08:06:22;;;;;;;21.95;11.52;;;4.40;85.20;;;;;;5054938;28;20208;-61
2022/01/10 08:08:49;;;;;;;24.15;11.02;;;4.40;85.40;;;;;;5054620;28;20197;-61
2022/01/10 08:11:16;;;;;;;18.85;9.95;;;4.50;85.30;;;;;;5054583;28;20234;-59
2022/01/10 08:13:43;;;;;;;25.15;10.98;;;4.50;85.10;;;;;;5053415;28;20229;-60
2022/01/10 08:16:10;;;;;;;20.67;11.30;;;4.50;84.90;;;;;;5054746;28;20210;-60
2022/01/10 08:18:37;;;;;;;18.88;11.45;;;4.50;84.90;;;;;;5054670;28;20201;-60
2022/01/10 08:21:06;;;;;;;25.15;12.30;;;4.40;85.20;;;;;;5054546;28;20201;-58
2022/01/10 08:23:33;;;;;;;24.10;11.82;;;4.40;85.40;;;;;;5054357;28;20205;-60
2022/01/10 08:26:00;;;;;;;26.52;12.88;;;4.30;86.00;;;;;;5054211;28;20205;-55
2022/01/10 08:28:27;;;;;;;24.63;13.57;;;4.30;85.90;;;;;;5053239;28;20213;-59
2022/01/10 08:30:54;;;;;;;24.52;12.32;;;4.30;85.70;;;;;;5054540;28;20203;-61
2022/01/10 08:33:21;;;;;;;23.10;11.68;;;4.30;86.00;;;;;;5054218;28;20211;-60
2022/01/10 08:35:48;;;;;;;27.83;11.18;;;4.30;85.70;;;;;;5054361;28;20236;-59
2022/01/10 08:38:17;;;;;;;24.40;12.10;;;4.40;85.60;;;;;;5054262;28;20205;-60
2022/01/10 08:40:43;;;;;;;25.70;12.50;;;4.30;85.50;;;;;;5053845;28;20648;-59
2022/01/10 08:43:10;;;;;;;22.85;11.93;;;4.30;85.70;;;;;;5052972;28;20205;-58
2022/01/10 08:45:38;;;;;;;23.27;12.48;;;4.40;85.90;;;;;;5053972;28;20233;-59
2022/01/10 08:48:05;;;;;;;22.75;13.35;;;4.50;85.70;;;;;;5054010;28;20205;-58
2022/01/10 08:50:34;;;;;;;26.90;12.68;;;4.60;85.50;;;;;;5053950;28;20210;-60
2022/01/10 08:53:01;;;;;;;20.92;11.52;;;4.70;85.40;;;;;;5053940;28;20205;-60
2022/01/10 08:55:29;;;;;;;26.90;14.95;;;4.70;85.20;;;;;;5052699;28;20231;-59
2022/01/10 08:57:56;;;;;;;27.17;13.40;;;4.70;85.00;;;;;;5052629;28;20222;-58
2022/01/10 09:00:23;;;;;;;25.65;11.93;;;4.70;84.80;;;;;;5053770;28;20197;-60
2022/01/10 09:02:50;;;;;;;25.55;12.65;;;4.70;84.70;;;;;;5053883;28;20304;-60
2022/01/10 09:05:17;;;;;;;20.13;11.75;;;4.70;84.80;;;;;;5053602;28;20233;-60
2022/01/10 09:07:44;;;;;;;24.77;12.43;;;4.70;84.90;;;;;;5053368;28;20248;-59
2022/01/10 09:10:11;;;;;;;20.88;11.85;;;4.60;84.50;;;;;;5053395;28;20197;-59
2022/01/10 09:12:40;;;;;;;22.73;11.23;;;4.60;84.70;;;;;;5052255;28;20243;-60
2022/01/10 09:15:08;;;;;;;21.45;11.10;;;4.60;84.70;;;;;;5053540;28;20209;-60
2022/01/10 09:17:35;;;;;;;20.88;11.95;;;4.60;84.90;;;;;;5053371;28;20201;-60
2022/01/10 09:20:02;;;;;;;24.52;13.07;;;4.60;85.30;;;;;;5053318;28;20215;-57
2022/01/10 09:22:29;;;;;;;23.85;11.80;;;4.60;85.20;;;;;;5053319;28;20301;-59
2022/01/10 09:24:56;;;;;;;26.42;11.60;;;4.70;85.00;;;;;;5053124;28;20233;-58
2022/01/10 09:27:23;;;;;;;20.50;12.10;;;4.70;85.00;;;;;;5052227;28;20297;-60
2022/01/10 09:29:51;;;;;;;21.23;11.73;;;4.70;84.80;;;;;;5053246;28;20201;-59
2022/01/10 09:32:18;;;;;;;22.05;11.98;;;4.80;84.80;;;;;;5053134;28;20292;-59
2022/01/10 09:34:45;;;;;;;24.02;11.90;;;4.60;85.10;;;;;;5053149;28;20198;-57
2022/01/10 09:37:12;;;;;;;24.67;13.70;;;4.50;86.20;;;;;;5053173;28;20211;-59
2022/01/10 09:39:38;;;;;;;24.88;13.20;;;4.60;86.20;;;;;;5053117;28;20654;-60
2022/01/10 09:42:06;;;;;;;22.92;13.27;;;4.70;85.90;;;;;;5051858;28;20211;-61
2022/01/10 09:44:34;;;;;;;28.63;14.40;;;4.80;85.70;;;;;;5052874;28;20265;-59
2022/01/10 09:47:02;;;;;;;29.55;14.05;;;4.90;85.50;;;;;;5053052;28;20233;-59
2022/01/10 09:49:29;;;;;;;30.33;14.27;;;5.00;85.30;;;;;;5052915;28;20672;-59
2022/01/10 09:51:56;;;;;;;31.98;15.77;;;5.00;85.20;;;;;;5052927;28;20408;-59
2022/01/10 09:54:23;;;;;;;21.90;13.73;;;5.10;85.10;;;;;;5052711;28;20293;-59
2022/01/10 09:56:50;;;;;;;28.13;14.73;;;5.10;85.00;;;;;;5051640;28;20216;-59
2022/01/10 09:59:18;;;;;;;23.60;13.30;;;5.20;84.90;;;;;;5052919;28;20251;-59
2022/01/10 10:01:48;;;;;;;25.60;13.43;;;5.20;84.60;;;;;;5052863;28;20296;-59
2022/01/10 10:04:17;;;;;;;27.73;14.10;;;5.20;84.70;;;;;;5052682;28;20653;-59
2022/01/10 10:06:46;;;;;;;24.13;13.90;;;5.30;84.70;;;;;;5052350;28;20201;-58
2022/01/10 10:09:13;;;;;;;27.33;14.30;;;5.20;84.30;;;;;;5052579;28;20197;-59
2022/01/10 10:11:42;;;;;;;30.92;16.27;;;5.20;84.80;;;;;;5051185;28;20236;-59
2022/01/10 10:14:11;;;;;;;23.33;12.85;;;5.30;84.90;;;;;;5052770;28;20271;-60
2022/01/10 10:16:41;;;;;;;28.27;14.98;;;5.40;84.90;;;;;;5052496;28;20710;-60
2022/01/10 10:19:08;;;;;;;21.52;13.73;;;5.40;84.80;;;;;;5052617;28;20201;-60
2022/01/10 10:21:36;;;;;;;22.10;12.90;;;5.40;84.60;;;;;;5052607;28;20730;-60
2022/01/10 10:24:05;;;;;;;22.13;14.00;;;5.50;84.60;;;;;;5052378;28;20216;-58
2022/01/10 10:26:32;;;;;;;21.67;12.20;;;5.50;83.90;;;;;;5051885;28;20201;-59
2022/01/10 10:29:01;;;;;;;24.27;13.55;;;5.40;84.10;;;;;;5052429;28;20209;-59
2022/01/10 10:31:30;;;;;;;24.67;13.35;;;5.50;84.80;;;;;;5052611;28;20606;-59
2022/01/10 10:33:57;;;;;;;22.77;13.35;;;5.60;84.50;;;;;;5052611;28;20296;-59
2022/01/10 10:36:26;;;;;;;22.45;13.10;;;5.60;84.30;;;;;;5052422;28;20244;-60
2022/01/10 10:38:56;;;;;;;25.83;13.90;;;5.50;83.40;;;;;;5052647;28;20209;-60
2022/01/10 10:41:23;;;;;;;21.92;13.13;;;5.50;83.80;;;;;;5052267;28;20584;-59
2022/01/10 10:43:51;;;;;;;24.77;12.95;;;5.50;84.10;;;;;;5050980;28;20216;-59
2022/01/10 10:46:19;;;;;;;27.27;13.60;;;5.60;83.80;;;;;;5052330;28;20583;-60
2022/01/10 10:48:52;;;;;;;25.50;13.13;;;5.40;83.10;;;;;;5052292;28;20666;-59
2022/01/10 10:51:19;;;;;;;21.88;12.43;;;5.30;83.70;;;;;;5052357;28;20260;-58
2022/01/10 10:53:46;;;;;;;25.80;14.73;;;5.40;84.10;;;;;;5052302;28;20205;-60
2022/01/10 10:56:15;;;;;;;23.80;13.75;;;5.50;83.80;;;;;;5051978;28;20300;-63
2022/01/10 10:58:42;;;;;;;23.15;13.60;;;5.50;83.30;;;;;;5050901;28;20537;-58
2022/01/10 11:01:09;;;;;;;20.75;13.38;;;5.60;83.60;;;;;;5052306;28;20220;-59
2022/01/10 11:03:36;;;;;;;23.77;12.80;;;5.50;83.20;;;;;;5052294;28;20208;-59
2022/01/10 11:06:05;;;;;;;24.50;13.35;;;5.40;83.30;;;;;;5052226;28;20565;-59
2022/01/10 11:08:36;;;;;;;21.27;12.57;;;5.40;84.00;;;;;;5052157;28;20289;-59
2022/01/10 11:11:03;;;;;;;21.42;13.30;;;5.50;83.80;;;;;;5051699;28;20587;-59
2022/01/10 11:13:32;;;;;;;27.23;13.88;;;5.60;83.90;;;;;;5050881;28;20217;-60
2022/01/10 11:16:00;;;;;;;20.77;13.43;;;5.60;83.40;;;;;;5052156;28;20296;-60
2022/01/10 11:18:27;;;;;;;20.48;12.65;;;5.60;82.80;;;;;;5052792;28;20559;-60
2022/01/10 11:20:57;;;;;;;23.85;13.90;;;5.60;83.60;;;;;;5055720;28;20205;-60
2022/01/10 11:23:24;;;;;;;27.00;14.32;;;5.70;83.60;;;;;;5055578;28;20243;-59
2022/01/10 11:25:51;;;;;;;23.20;12.68;;;5.70;82.90;;;;;;5055520;28;20229;-59
2022/01/10 11:28:23;;;;;;;22.40;12.05;;;5.80;82.60;;;;;;5054269;28;20198;-60
2022/01/10 11:30:54;;;;;;;18.83;12.00;;;5.80;82.40;;;;;;5055510;28;20209;-59
2022/01/10 11:33:24;;;;;;;21.88;12.50;;;5.90;82.80;;;;;;5055414;28;20225;-60
2022/01/10 11:35:53;;;;;;;26.50;13.10;;;6.00;82.40;;;;;;5055377;28;20215;-58
2022/01/10 11:38:38;;;;;;;19.50;12.20;;;6.30;82.60;;;;;;5055347;28;20209;-59
2022/01/10 11:41:07;;;;;;;20.42;12.23;;;6.60;81.80;;;;;;5055313;28;20221;-62
2022/01/10 11:43:45;;;;;;;17.25;10.27;;;6.60;79.90;;;;;;5053903;28;20209;-60
2022/01/10 11:46:19;;;;;;;14.85;9.25;;;6.80;79.70;;;;;;5055241;28;20229;-61
2022/01/10 11:48:55;;;;;;;12.85;8.52;;;8.20;78.90;;;;;;5055319;28;20652;-62
2022/01/10 11:51:23;;;;;;;16.65;11.65;;;9.90;75.10;;;;;;5055133;28;20284;-61
2022/01/10 11:53:53;;;;;;;15.13;12.07;;;10.90;71.70;;;;;;5055259;28;20206;-62
2022/01/10 11:56:26;;;;;;;18.85;12.82;;;11.10;68.00;;;;;;5055071;28;20206;-61
2022/01/10 11:59:27;;;;;;;17.88;11.43;;;10.80;70.70;;;;;;5053593;28;20271;-62
2022/01/10 12:01:59;;;;;;;15.38;13.77;;;10.20;70.10;;;;;;4993542;28;20211;-60
2022/01/10 12:04:27;;;;;;;20.13;14.10;;;9.70;71.40;;;;;;5044363;28;20205;-62
2022/01/10 12:06:55;;;;;;;18.27;14.43;;;9.30;72.70;;;;;;5054957;28;20280;-60
2022/01/10 12:09:23;;;;;;;17.27;15.43;;;8.70;71.20;;;;;;5054586;28;20205;-58
2022/01/10 12:11:51;;;;;;;19.95;15.07;;;7.70;72.70;;;;;;5053228;28;20233;-61
2022/01/10 12:14:19;;;;;;;17.33;13.90;;;7.50;75.50;;;;;;5054694;28;20212;-59
2022/01/10 12:16:46;;;;;;;19.83;14.55;;;7.50;76.40;;;;;;5054684;28;20216;-59
2022/01/10 12:19:15;;;;;;;16.80;13.07;;;7.50;76.30;;;;;;5054528;28;20696;-58
2022/01/10 12:21:42;;;;;;;17.90;14.27;;;7.10;76.60;;;;;;5054422;28;20236;-58
2022/01/10 12:24:10;;;;;;;19.08;13.85;;;7.00;77.20;;;;;;5054513;28;20310;-58
2022/01/10 12:26:38;;;;;;;16.48;12.45;;;7.10;77.40;;;;;;5053470;28;20232;-59
2022/01/10 12:29:06;;;;;;;19.60;14.80;;;7.20;77.60;;;;;;5054166;28;20301;-59
2022/01/10 12:31:35;;;;;;;24.75;14.50;;;7.30;77.30;;;;;;5054318;28;20206;-58
2022/01/10 12:34:03;;;;;;;18.05;12.77;;;7.30;76.80;;;;;;5054320;28;20672;-59
2022/01/10 12:36:33;;;;;;;21.20;13.15;;;7.10;76.30;;;;;;5054245;28;20201;-59
2022/01/10 12:39:03;;;;;;;20.23;12.65;;;6.80;76.50;;;;;;5054357;28;20747;-59
2022/01/10 12:41:32;;;;;;;13.73;11.25;;;6.70;77.10;;;;;;5054155;28;20212;-59
2022/01/10 12:44:00;;;;;;;17.48;12.10;;;6.70;77.70;;;;;;5053322;28;20205;-57
2022/01/10 12:46:30;;;;;;;19.35;11.93;;;6.70;77.80;;;;;;5054070;28;20237;-60
2022/01/10 12:48:57;;;;;;;18.60;12.65;;;6.80;77.60;;;;;;5053932;28;20201;-60
2022/01/10 12:51:24;;;;;;;17.70;11.55;;;6.60;76.80;;;;;;5053934;28;20300;-58
2022/01/10 12:53:52;;;;;;;19.95;13.90;;;6.40;77.60;;;;;;5053961;28;20675;-59